Time;durP1;ratioP1;P1;durP2;ratioP2;P2;SDS_P1;SDS_P2;PMS_P1;PMS_P2;Temp;Humidity;BMP_temperature;BMP_pressure;BME280_temperature;BME280_humidity;BME280_pressure;Samples;Min_cycle;Max_cycle;Signal;HPM_P1;HPM_P2
2023/03/17 00:00:37;;;;;;;9.05;1.67;;;6.30;49.20;;;;;;4125550;28;20033;-85
2023/03/17 00:02:44;;;;;;;5.32;1.48;;;6.30;49.30;;;;;;4143959;28;20034;-85
2023/03/17 00:04:45;;;;;;;4.20;1.10;;;6.30;49.40;;;;;;4142550;28;20849;-83
2023/03/17 00:07:07;;;;;;;5.15;1.48;;;6.40;49.40;;;;;;4140343;28;20056;-83
2023/03/17 00:09:28;;;;;;;10.75;1.42;;;6.30;49.40;;;;;;4136031;28;20108;-85
2023/03/17 00:11:28;;;;;;;8.68;1.50;;;6.30;49.40;;;;;;4122259;28;20529;-84
2023/03/17 00:13:49;;;;;;;8.95;1.65;;;6.30;49.50;;;;;;4143782;28;20043;-86
2023/03/17 00:16:20;;;;;;;3.63;1.40;;;6.30;49.50;;;;;;4141888;28;20076;-84
2023/03/17 00:18:44;;;;;;;2.80;1.17;;;6.30;49.60;;;;;;4137825;28;20039;-84
2023/03/17 00:21:05;;;;;;;3.72;1.02;;;6.30;49.60;;;;;;4127049;28;20038;-84
2023/03/17 00:23:16;;;;;;;6.20;1.42;;;6.30;49.60;;;;;;4126846;28;20054;-84
2023/03/17 00:25:41;;;;;;;5.78;1.48;;;6.20;49.60;;;;;;4127750;28;20031;-85
2023/03/17 00:28:03;;;;;;;4.40;1.27;;;6.20;49.60;;;;;;4139743;28;20096;-84
2023/03/17 00:30:26;;;;;;;6.50;1.27;;;6.20;49.60;;;;;;4125718;28;20523;-83
2023/03/17 00:32:49;;;;;;;6.75;1.40;;;6.20;49.70;;;;;;4127873;28;20050;-84
2023/03/17 00:35:22;;;;;;;6.15;1.45;;;6.20;49.70;;;;;;4142598;28;20048;-84
2023/03/17 00:37:43;;;;;;;5.97;1.52;;;6.20;49.80;;;;;;4143553;28;20030;-84
2023/03/17 00:40:10;;;;;;;6.68;1.10;;;6.20;49.80;;;;;;4140359;28;20038;-84
2023/03/17 00:42:31;;;;;;;6.50;1.45;;;6.20;49.80;;;;;;4126081;28;20097;-83
2023/03/17 00:44:51;;;;;;;5.38;1.35;;;6.20;49.80;;;;;;4130451;28;20454;-85
2023/03/17 00:47:12;;;;;;;4.53;1.58;;;6.10;49.80;;;;;;4142034;28;20158;-84
2023/03/17 00:49:17;;;;;;;6.53;1.20;;;6.10;49.90;;;;;;4143375;28;20042;-84
2023/03/17 00:51:38;;;;;;;4.63;1.30;;;6.10;50.00;;;;;;4142054;28;20156;-84
2023/03/17 00:53:58;;;;;;;6.57;1.55;;;6.10;50.00;;;;;;4125144;28;20035;-83
2023/03/17 00:56:20;;;;;;;5.72;1.33;;;6.00;50.00;;;;;;4141467;28;20056;-84
2023/03/17 00:58:41;;;;;;;4.95;1.50;;;6.00;50.10;;;;;;4144013;28;20053;-84
2023/03/17 01:01:02;;;;;;;2.92;1.10;;;6.00;50.20;;;;;;4140529;28;20034;-84
2023/03/17 01:03:23;;;;;;;5.25;1.48;;;6.00;50.20;;;;;;4131013;28;20054;-85
2023/03/17 01:05:45;;;;;;;3.17;1.20;;;6.00;50.20;;;;;;4139340;28;20042;-84
2023/03/17 01:08:06;;;;;;;4.35;1.20;;;6.00;50.30;;;;;;4130988;28;20121;-84
2023/03/17 01:10:28;;;;;;;3.67;1.27;;;6.10;50.40;;;;;;4142336;28;20038;-84
2023/03/17 01:12:49;;;;;;;4.45;1.38;;;5.90;50.40;;;;;;4141448;28;20068;-84
2023/03/17 01:15:12;;;;;;;6.28;1.30;;;6.00;51.00;;;;;;4125578;28;20168;-84
2023/03/17 01:17:33;;;;;;;5.05;1.20;;;5.90;50.50;;;;;;4128482;28;20038;-85
2023/03/17 01:19:54;;;;;;;7.13;1.70;;;5.90;50.50;;;;;;4134686;28;20103;-83
2023/03/17 01:22:14;;;;;;;5.97;1.60;;;5.90;50.60;;;;;;4127641;28;20038;-82
2023/03/17 01:24:36;;;;;;;6.55;1.60;;;5.90;50.60;;;;;;4132805;28;20092;-84
2023/03/17 01:26:56;;;;;;;8.00;1.52;;;5.90;50.70;;;;;;4132172;28;20049;-85
2023/03/17 01:29:17;;;;;;;6.25;1.33;;;5.90;50.80;;;;;;4138305;28;20034;-82
2023/03/17 01:31:38;;;;;;;3.55;1.38;;;5.90;50.90;;;;;;4138220;28;20113;-84
2023/03/17 01:33:58;;;;;;;5.78;1.17;;;5.80;50.80;;;;;;4137845;28;20589;-83
2023/03/17 01:36:19;;;;;;;3.38;1.35;;;5.80;50.80;;;;;;4125682;28;20030;-83
2023/03/17 01:38:40;;;;;;;4.28;1.25;;;5.80;50.90;;;;;;4141778;28;20122;-85
2023/03/17 01:41:02;;;;;;;3.97;1.15;;;5.80;50.90;;;;;;4137572;28;20291;-84
2023/03/17 01:43:28;;;;;;;4.55;0.95;;;5.80;50.90;;;;;;4128267;28;20160;-85
2023/03/17 01:46:21;;;;;;;5.05;1.15;;;5.80;51.00;;;;;;4139473;28;20046;-84
2023/03/17 01:48:51;;;;;;;4.45;1.13;;;5.80;51.20;;;;;;4138560;28;20029;-83
2023/03/17 01:51:23;;;;;;;4.65;1.20;;;5.80;51.20;;;;;;4136861;28;20037;-84
2023/03/17 01:53:47;;;;;;;2.90;1.33;;;5.80;51.20;;;;;;4139148;28;20033;-83
2023/03/17 01:56:08;;;;;;;5.97;1.30;;;5.70;51.10;;;;;;4139135;28;20038;-84
2023/03/17 01:58:30;;;;;;;3.22;1.30;;;5.70;51.20;;;;;;4123174;28;20312;-85
2023/03/17 02:00:51;;;;;;;4.40;1.35;;;5.80;51.30;;;;;;4126341;28;20076;-85
2023/03/17 02:03:12;;;;;;;5.32;1.30;;;5.70;51.90;;;;;;4142523;28;20038;-83
2023/03/17 02:05:32;;;;;;;5.50;1.30;;;5.70;51.40;;;;;;4137627;28;20094;-85
2023/03/17 02:07:34;;;;;;;3.80;1.27;;;5.70;51.50;;;;;;4126441;28;20575;-83
2023/03/17 02:09:35;;;;;;;4.00;1.52;;;5.70;51.50;;;;;;4125613;28;20453;-85
2023/03/17 02:11:37;;;;;;;3.90;1.20;;;5.70;51.60;;;;;;4141316;28;20085;-84
2023/03/17 02:13:37;;;;;;;4.78;1.75;;;5.70;52.20;;;;;;4140952;28;20364;-84
2023/03/17 02:15:45;;;;;;;7.43;1.73;;;5.70;51.70;;;;;;4142026;28;20040;-86
2023/03/17 02:17:46;;;;;;;5.82;1.30;;;5.60;51.70;;;;;;4140231;28;20396;-82
2023/03/17 02:19:47;;;;;;;5.15;1.80;;;5.60;51.70;;;;;;4141273;28;20026;-85
2023/03/17 02:21:58;;;;;;;6.78;1.50;;;5.60;51.70;;;;;;4127081;28;20022;-84
2023/03/17 02:24:04;;;;;;;3.90;1.50;;;5.60;51.80;;;;;;4139290;28;20060;-84
2023/03/17 02:26:06;;;;;;;4.25;1.35;;;5.70;51.80;;;;;;4108850;28;20027;-84
2023/03/17 02:28:28;;;;;;;2.92;1.10;;;5.60;51.80;;;;;;4142041;28;20078;-84
2023/03/17 02:30:30;;;;;;;5.25;1.13;;;5.60;51.80;;;;;;4142676;28;20045;-85
2023/03/17 02:32:37;;;;;;;5.85;2.05;;;5.60;51.80;;;;;;4142281;28;20499;-85
2023/03/17 02:34:58;;;;;;;4.50;1.30;;;5.60;51.80;;;;;;4143330;28;20040;-84
2023/03/17 02:37:07;;;;;;;4.07;1.40;;;5.60;52.00;;;;;;4135837;28;20135;-84
2023/03/17 02:39:12;;;;;;;4.45;1.30;;;5.60;52.00;;;;;;4124086;28;20034;-83
2023/03/17 02:41:33;;;;;;;8.25;1.50;;;5.60;52.10;;;;;;4139838;28;20075;-85
2023/03/17 02:43:55;;;;;;;4.97;1.35;;;5.50;51.90;;;;;;4137898;28;20386;-84
2023/03/17 02:46:16;;;;;;;3.65;1.40;;;5.50;52.10;;;;;;4140392;28;20105;-84
2023/03/17 02:48:37;;;;;;;7.60;1.83;;;5.50;52.10;;;;;;4142904;28;20061;-84
2023/03/17 02:50:58;;;;;;;5.55;1.52;;;5.50;52.20;;;;;;4141491;28;20202;-85
2023/03/17 02:53:18;;;;;;;4.45;1.60;;;5.60;52.30;;;;;;4137234;28;20030;-84
2023/03/17 02:55:30;;;;;;;3.63;1.10;;;5.50;52.30;;;;;;4140342;28;20025;-84
2023/03/17 02:57:34;;;;;;;6.25;1.90;;;5.50;52.40;;;;;;4143011;28;20013;-85
2023/03/17 02:59:54;;;;;;;4.53;1.58;;;5.50;52.50;;;;;;4132444;28;20030;-84
2023/03/17 03:02:15;;;;;;;5.05;1.80;;;5.40;52.50;;;;;;4143595;28;20026;-84
2023/03/17 03:04:36;;;;;;;6.57;1.45;;;5.40;52.50;;;;;;4130953;28;20062;-85
2023/03/17 03:06:57;;;;;;;2.58;1.27;;;5.40;52.60;;;;;;4124456;28;21178;-83
2023/03/17 03:09:17;;;;;;;3.50;1.20;;;5.40;52.70;;;;;;4135959;28;20030;-83
2023/03/17 03:11:39;;;;;;;3.05;1.17;;;5.40;52.60;;;;;;4122624;28;20026;-83
2023/03/17 03:14:00;;;;;;;4.50;1.50;;;5.40;52.80;;;;;;4136749;28;20424;-84
2023/03/17 03:16:20;;;;;;;3.78;1.65;;;5.40;52.80;;;;;;4140634;28;20093;-85
2023/03/17 03:18:41;;;;;;;3.13;1.27;;;5.40;52.90;;;;;;4139432;28;20063;-84
2023/03/17 03:21:03;;;;;;;5.15;1.45;;;5.40;53.00;;;;;;4139406;28;20038;-85
2023/03/17 03:23:24;;;;;;;4.13;1.58;;;5.40;53.00;;;;;;4140906;28;20065;-84
2023/03/17 03:25:45;;;;;;;3.78;1.33;;;5.40;53.10;;;;;;4144198;28;20029;-83
2023/03/17 03:28:07;;;;;;;3.80;1.52;;;5.40;53.10;;;;;;4146053;28;20034;-83
2023/03/17 03:30:27;;;;;;;3.67;1.50;;;5.40;53.20;;;;;;4139439;28;20026;-85
2023/03/17 03:32:48;;;;;;;9.25;1.48;;;5.40;53.50;;;;;;4126030;28;20026;-85
2023/03/17 03:35:09;;;;;;;5.43;1.45;;;5.40;53.20;;;;;;4137583;28;20134;-85
2023/03/17 03:37:30;;;;;;;3.70;1.30;;;5.40;53.20;;;;;;4125568;28;20117;-83
2023/03/17 03:39:51;;;;;;;4.47;1.67;;;5.40;53.40;;;;;;4138931;28;20033;-84
2023/03/17 03:42:11;;;;;;;3.13;1.58;;;5.40;53.40;;;;;;4126424;28;20583;-85
2023/03/17 03:44:32;;;;;;;6.18;1.45;;;5.40;53.40;;;;;;4124057;28;20053;-83
2023/03/17 03:46:52;;;;;;;7.63;1.88;;;5.40;53.50;;;;;;4125462;28;20547;-82
2023/03/17 03:49:13;;;;;;;6.95;2.10;;;5.40;53.50;;;;;;4126309;28;20026;-84
2023/03/17 03:51:34;;;;;;;8.73;1.60;;;5.40;53.60;;;;;;4139969;28;20030;-83
2023/03/17 03:53:55;;;;;;;7.07;1.40;;;5.40;53.80;;;;;;4139874;28;20045;-84
2023/03/17 03:56:16;;;;;;;4.20;1.58;;;5.40;53.70;;;;;;4139264;28;20085;-85
2023/03/17 03:58:36;;;;;;;4.78;1.40;;;5.40;53.80;;;;;;4129334;28;20092;-85
2023/03/17 04:00:57;;;;;;;2.92;1.52;;;5.40;53.80;;;;;;4142257;28;20029;-84
2023/03/17 04:03:17;;;;;;;7.05;1.75;;;5.40;53.90;;;;;;4125521;28;20035;-84
2023/03/17 04:05:39;;;;;;;4.20;1.50;;;5.40;54.00;;;;;;4142648;28;20037;-86
2023/03/17 04:07:59;;;;;;;3.45;1.60;;;5.40;54.00;;;;;;4144054;28;20037;-84
2023/03/17 04:10:21;;;;;;;7.95;1.50;;;5.40;54.00;;;;;;4141693;28;20098;-84
2023/03/17 04:12:43;;;;;;;3.22;1.60;;;5.40;54.00;;;;;;4144977;28;20034;-83
2023/03/17 04:15:04;;;;;;;3.15;1.63;;;5.40;54.10;;;;;;4142354;28;20046;-84
2023/03/17 04:17:25;;;;;;;4.50;1.63;;;5.40;54.00;;;;;;4142718;28;20105;-86
2023/03/17 04:19:45;;;;;;;3.95;1.98;;;5.40;54.10;;;;;;4144391;28;20034;-85
2023/03/17 04:22:07;;;;;;;6.00;1.63;;;5.40;54.10;;;;;;4145984;28;20069;-84
2023/03/17 04:24:28;;;;;;;4.57;1.55;;;5.40;54.20;;;;;;4143648;28;20096;-85
2023/03/17 04:26:49;;;;;;;3.92;1.90;;;5.40;54.20;;;;;;4143972;28;20042;-85
2023/03/17 04:29:14;;;;;;;3.88;1.75;;;5.40;54.20;;;;;;4144694;28;20029;-84
2023/03/17 04:31:35;;;;;;;3.95;1.60;;;5.40;54.20;;;;;;4141017;28;20128;-85
2023/03/17 04:33:56;;;;;;;5.93;2.00;;;5.40;54.30;;;;;;4128985;28;20030;-84
2023/03/17 04:36:21;;;;;;;2.83;1.50;;;5.40;54.30;;;;;;4131044;28;20030;-84
2023/03/17 04:38:42;;;;;;;5.03;1.60;;;5.40;54.40;;;;;;4142699;28;20026;-84
2023/03/17 04:41:01;;;;;;;5.13;1.70;;;5.40;54.40;;;;;;4141820;28;20070;-84
2023/03/17 04:43:20;;;;;;;7.55;1.48;;;5.50;54.40;;;;;;4142717;28;20057;-85
2023/03/17 04:45:39;;;;;;;5.25;1.67;;;5.40;54.50;;;;;;4142506;28;20114;-84
2023/03/17 04:47:59;;;;;;;7.95;1.80;;;5.40;54.50;;;;;;4142209;28;20455;-85
2023/03/17 04:50:18;;;;;;;10.40;2.05;;;5.40;54.50;;;;;;4142348;28;20049;-84
2023/03/17 04:52:40;;;;;;;2.97;1.48;;;5.40;54.50;;;;;;4142677;28;20033;-84
2023/03/17 04:55:00;;;;;;;4.55;2.10;;;5.40;54.60;;;;;;4144312;28;20092;-84
2023/03/17 04:57:19;;;;;;;4.97;1.90;;;5.40;54.60;;;;;;4128176;28;20551;-83
2023/03/17 04:59:35;;;;;;;3.55;1.63;;;5.40;54.70;;;;;;4136795;28;20044;-83
2023/03/17 05:01:54;;;;;;;8.05;1.65;;;5.40;54.80;;;;;;4141972;28;20411;-83
2023/03/17 05:04:14;;;;;;;6.43;2.10;;;5.40;54.80;;;;;;4140046;28;20187;-83
2023/03/17 05:06:34;;;;;;;7.82;1.90;;;5.40;54.80;;;;;;4138275;28;20119;-84
2023/03/17 05:08:53;;;;;;;3.72;1.90;;;5.40;54.80;;;;;;4136080;28;20101;-84
2023/03/17 05:11:13;;;;;;;3.85;1.77;;;5.40;54.80;;;;;;4134074;28;20077;-83
2023/03/17 05:13:32;;;;;;;3.45;1.73;;;5.40;54.80;;;;;;4140214;28;20080;-85
2023/03/17 05:15:53;;;;;;;5.60;2.00;;;5.40;54.80;;;;;;4128502;28;20952;-82
2023/03/17 05:18:14;;;;;;;7.50;2.10;;;5.30;54.90;;;;;;4144005;28;20087;-85
2023/03/17 05:20:33;;;;;;;7.78;2.05;;;5.30;54.80;;;;;;4144665;28;21059;-84
2023/03/17 05:22:52;;;;;;;7.68;2.00;;;5.30;55.00;;;;;;4130177;28;20052;-84
2023/03/17 05:25:11;;;;;;;4.10;1.77;;;5.30;55.00;;;;;;4131722;28;20076;-83
2023/03/17 05:27:30;;;;;;;4.20;2.03;;;5.30;55.00;;;;;;4132694;28;20044;-85
2023/03/17 05:29:49;;;;;;;3.83;1.75;;;5.30;55.10;;;;;;4117484;28;20045;-88
2023/03/17 05:32:08;;;;;;;4.82;1.70;;;5.30;55.10;;;;;;4140278;28;20042;-83
2023/03/17 05:34:27;;;;;;;6.13;2.08;;;5.30;55.10;;;;;;4141942;28;20048;-83
2023/03/17 05:36:46;;;;;;;4.50;2.30;;;5.30;55.20;;;;;;4140804;28;20053;-84
2023/03/17 05:39:06;;;;;;;4.75;1.92;;;5.30;55.20;;;;;;4130094;28;20069;-83
2023/03/17 05:41:25;;;;;;;5.97;1.90;;;5.30;55.30;;;;;;4140096;28;20597;-85
2023/03/17 05:43:44;;;;;;;4.97;1.80;;;5.30;55.40;;;;;;4129734;28;20085;-84
2023/03/17 05:46:04;;;;;;;5.38;1.90;;;5.30;55.40;;;;;;4136147;28;20529;-83
2023/03/17 05:48:24;;;;;;;3.83;1.70;;;5.30;55.50;;;;;;4142413;28;20133;-83
2023/03/17 05:50:46;;;;;;;8.18;2.10;;;5.30;55.50;;;;;;4143132;28;20041;-83
2023/03/17 05:53:05;;;;;;;3.05;1.67;;;5.30;55.60;;;;;;4122431;28;20040;-84
2023/03/17 05:55:25;;;;;;;4.22;2.00;;;5.30;55.70;;;;;;4139026;28;20041;-84
2023/03/17 05:57:45;;;;;;;4.35;2.17;;;5.30;55.70;;;;;;4136845;28;20097;-83
2023/03/17 06:00:06;;;;;;;4.07;2.10;;;5.30;55.70;;;;;;4136713;28;20037;-83
2023/03/17 06:02:25;;;;;;;4.30;2.03;;;5.30;55.80;;;;;;4140500;28;20099;-83
2023/03/17 06:04:45;;;;;;;4.78;1.90;;;5.30;55.80;;;;;;4139647;28;20061;-83
2023/03/17 06:07:05;;;;;;;6.22;1.88;;;5.30;55.90;;;;;;4138871;28;20048;-83
2023/03/17 06:09:25;;;;;;;3.88;1.90;;;5.20;55.90;;;;;;4125295;28;20042;-83
2023/03/17 06:11:44;;;;;;;4.05;1.67;;;5.20;56.00;;;;;;4137001;28;20041;-83
2023/03/17 06:14:03;;;;;;;5.53;1.88;;;5.20;56.00;;;;;;4118763;28;20042;-84
2023/03/17 06:16:22;;;;;;;6.22;1.88;;;5.20;56.10;;;;;;4124016;28;20101;-84
2023/03/17 06:18:42;;;;;;;9.80;2.05;;;5.20;56.20;;;;;;4139877;28;20518;-84
2023/03/17 06:21:01;;;;;;;4.95;2.05;;;5.20;56.20;;;;;;4129655;28;20052;-84
2023/03/17 06:23:22;;;;;;;10.30;2.25;;;5.30;56.30;;;;;;4142935;28;20121;-84
2023/03/17 06:25:41;;;;;;;5.45;2.45;;;5.30;56.30;;;;;;4140451;28;20045;-84
2023/03/17 06:28:02;;;;;;;4.50;2.03;;;5.30;56.30;;;;;;4137012;28;20033;-84
2023/03/17 06:30:21;;;;;;;4.68;2.17;;;5.30;57.00;;;;;;4139982;28;20049;-84
2023/03/17 06:32:41;;;;;;;5.18;2.47;;;5.20;56.50;;;;;;4140480;28;20607;-84
2023/03/17 06:35:00;;;;;;;4.72;1.95;;;5.30;56.50;;;;;;4136488;28;20060;-83
2023/03/17 06:37:20;;;;;;;7.43;2.38;;;5.30;56.60;;;;;;4139831;28;20092;-84
2023/03/17 06:39:41;;;;;;;4.47;2.20;;;5.30;56.60;;;;;;4138873;28;20040;-83
2023/03/17 06:42:00;;;;;;;3.80;1.77;;;5.30;56.70;;;;;;4145347;28;20041;-84
2023/03/17 06:44:20;;;;;;;6.32;2.13;;;5.30;56.70;;;;;;4137817;28;20033;-83
2023/03/17 06:46:42;;;;;;;4.70;2.28;;;5.30;56.80;;;;;;4124616;28;20041;-84
2023/03/17 06:49:02;;;;;;;5.28;2.40;;;5.40;56.90;;;;;;4137996;28;20068;-83
2023/03/17 06:51:21;;;;;;;5.72;2.28;;;5.40;56.90;;;;;;4137369;28;20040;-83
2023/03/17 06:53:40;;;;;;;5.43;2.28;;;5.40;56.90;;;;;;4134460;28;20091;-83
2023/03/17 06:56:00;;;;;;;6.10;2.17;;;5.40;56.90;;;;;;4125232;28;20141;-83
2023/03/17 06:58:19;;;;;;;6.97;2.28;;;5.50;57.00;;;;;;4136506;28;20032;-83
2023/03/17 07:00:38;;;;;;;5.25;2.50;;;5.50;57.60;;;;;;4127544;28;20083;-83
2023/03/17 07:02:58;;;;;;;5.50;2.28;;;5.50;56.90;;;;;;4139483;28;20036;-83
2023/03/17 07:05:17;;;;;;;5.63;2.33;;;5.50;57.00;;;;;;4137683;28;20056;-83
2023/03/17 07:07:37;;;;;;;4.70;1.98;;;5.60;57.10;;;;;;4125464;28;20041;-83
2023/03/17 07:09:57;;;;;;;4.03;2.17;;;5.60;57.00;;;;;;4141380;28;20113;-83
2023/03/17 07:12:16;;;;;;;6.38;2.60;;;5.60;57.00;;;;;;4137090;28;20097;-84
2023/03/17 07:14:35;;;;;;;4.43;1.92;;;5.60;57.00;;;;;;4109987;28;20037;-84
2023/03/17 07:16:54;;;;;;;6.38;2.88;;;5.70;57.00;;;;;;4135384;28;20033;-84
2023/03/17 07:19:14;;;;;;;5.60;2.15;;;5.70;57.10;;;;;;4125191;28;20037;-83
2023/03/17 07:21:33;;;;;;;6.72;1.95;;;5.70;57.10;;;;;;4137766;28;20049;-83
2023/03/17 07:23:52;;;;;;;8.07;2.58;;;5.80;57.10;;;;;;4131307;28;20108;-83
2023/03/17 07:26:12;;;;;;;6.75;2.00;;;5.80;57.00;;;;;;4137545;28;20582;-83
2023/03/17 07:28:31;;;;;;;4.93;2.40;;;5.80;57.00;;;;;;4140174;28;20100;-83
2023/03/17 07:30:50;;;;;;;3.83;2.10;;;5.90;56.90;;;;;;4131597;28;20519;-83
2023/03/17 07:33:10;;;;;;;5.28;2.10;;;6.00;56.90;;;;;;4137936;28;20109;-83
2023/03/17 07:35:30;;;;;;;7.95;2.28;;;6.00;56.90;;;;;;4139320;28;20376;-83
2023/03/17 07:37:49;;;;;;;6.57;2.38;;;6.10;56.80;;;;;;4139774;28;20048;-83
2023/03/17 07:40:09;;;;;;;4.30;2.38;;;6.10;56.80;;;;;;4136570;28;20037;-83
2023/03/17 07:42:29;;;;;;;4.78;2.50;;;6.10;56.80;;;;;;4140014;28;20036;-84
2023/03/17 07:44:48;;;;;;;5.40;2.30;;;6.20;56.80;;;;;;4136792;28;20603;-84
2023/03/17 07:47:09;;;;;;;9.57;2.60;;;6.20;56.80;;;;;;4135864;28;20037;-83
2023/03/17 07:49:28;;;;;;;6.18;2.67;;;6.30;56.80;;;;;;4137789;28;20037;-83
2023/03/17 07:51:48;;;;;;;5.40;2.53;;;6.30;56.70;;;;;;4138938;28;20072;-83
2023/03/17 07:54:08;;;;;;;6.07;2.05;;;6.40;56.70;;;;;;4139023;28;20543;-83
2023/03/17 07:56:29;;;;;;;5.43;2.42;;;6.40;56.60;;;;;;4139362;28;20056;-83
2023/03/17 07:58:49;;;;;;;6.75;2.35;;;6.50;56.60;;;;;;4141597;28;20087;-86
2023/03/17 08:01:08;;;;;;;5.32;2.70;;;6.50;56.60;;;;;;4142284;28;20152;-83
2023/03/17 08:03:29;;;;;;;6.25;3.15;;;6.60;56.70;;;;;;4136119;28;20064;-82
2023/03/17 08:05:56;;;;;;;4.15;2.20;;;6.60;56.70;;;;;;4134395;28;20044;-83
2023/03/17 08:08:21;;;;;;;4.97;2.10;;;6.60;56.70;;;;;;4136544;28;20037;-84
2023/03/17 08:10:40;;;;;;;5.32;2.30;;;6.70;56.70;;;;;;4140752;28;20587;-83
2023/03/17 08:13:03;;;;;;;4.72;2.42;;;6.70;56.80;;;;;;4137944;28;20034;-83
2023/03/17 08:15:22;;;;;;;6.82;2.70;;;6.80;56.90;;;;;;4136691;28;20121;-83
2023/03/17 08:17:42;;;;;;;9.32;2.80;;;6.90;57.00;;;;;;4136844;28;20092;-84
2023/03/17 08:20:03;;;;;;;8.30;2.80;;;6.90;56.90;;;;;;4127241;28;20113;-83
2023/03/17 08:22:23;;;;;;;5.78;2.50;;;7.10;56.90;;;;;;4139235;28;20082;-83
2023/03/17 08:24:43;;;;;;;3.70;2.47;;;7.20;56.90;;;;;;4124163;28;20045;-84
2023/03/17 08:27:02;;;;;;;6.90;2.72;;;7.20;56.80;;;;;;4130432;28;20057;-85
2023/03/17 08:29:22;;;;;;;6.40;2.40;;;7.20;56.70;;;;;;4143622;28;20556;-84
2023/03/17 08:31:41;;;;;;;4.20;2.25;;;7.30;56.60;;;;;;4141583;28;20036;-84
2023/03/17 08:34:03;;;;;;;6.47;2.47;;;7.40;56.60;;;;;;4128234;28;20068;-82
2023/03/17 08:36:23;;;;;;;5.80;2.75;;;7.40;56.60;;;;;;4123855;28;20097;-83
2023/03/17 08:38:43;;;;;;;4.57;2.50;;;7.50;56.50;;;;;;4124244;28;20044;-83
2023/03/17 08:41:05;;;;;;;5.55;2.63;;;7.60;56.50;;;;;;4125450;28;20452;-83
2023/03/17 08:43:25;;;;;;;7.75;2.80;;;7.60;56.40;;;;;;4137041;28;20154;-83
2023/03/17 08:45:44;;;;;;;7.60;2.45;;;7.70;56.40;;;;;;4123600;28;20112;-84
2023/03/17 08:48:04;;;;;;;4.75;2.90;;;7.80;56.40;;;;;;4140413;28;20840;-84
2023/03/17 08:50:24;;;;;;;11.35;2.75;;;7.90;56.40;;;;;;4141148;28;20522;-84
2023/03/17 08:52:44;;;;;;;8.77;2.72;;;8.00;56.40;;;;;;4132694;28;20075;-82
2023/03/17 08:55:04;;;;;;;7.88;2.65;;;8.10;56.20;;;;;;4126522;28;20048;-84
2023/03/17 08:57:23;;;;;;;9.02;3.25;;;8.30;56.10;;;;;;4142372;28;20044;-85
2023/03/17 08:59:44;;;;;;;5.43;2.50;;;8.40;56.00;;;;;;4140618;28;20054;-83
2023/03/17 09:02:04;;;;;;;12.80;3.08;;;8.50;55.80;;;;;;4135396;28;20084;-83
2023/03/17 09:04:24;;;;;;;4.88;2.67;;;8.70;55.60;;;;;;4141337;28;20727;-84
2023/03/17 09:06:44;;;;;;;5.97;2.78;;;8.80;55.30;;;;;;4139051;28;20108;-83
2023/03/17 09:09:04;;;;;;;9.07;2.70;;;8.90;55.10;;;;;;4140583;28;20034;-83
2023/03/17 09:11:27;;;;;;;6.47;3.10;;;9.00;54.70;;;;;;4127655;28;20072;-84
2023/03/17 09:13:48;;;;;;;5.28;2.70;;;9.20;54.50;;;;;;4139938;28;20062;-83
2023/03/17 09:16:07;;;;;;;5.97;2.50;;;9.30;54.40;;;;;;4128037;28;20365;-84
2023/03/17 09:18:26;;;;;;;5.03;2.90;;;9.40;54.10;;;;;;4127590;28;20100;-84
2023/03/17 09:20:45;;;;;;;8.55;3.10;;;9.50;54.00;;;;;;4129781;28;20037;-83
2023/03/17 09:23:09;;;;;;;6.35;2.88;;;9.60;53.70;;;;;;4136817;28;20497;-83
2023/03/17 09:25:28;;;;;;;;;;;9.70;53.60;;;;;;4129647;28;20143;-83
2023/03/17 09:27:48;;;;;;;6.13;3.03;;;9.80;53.40;;;;;;4130326;28;19929;-84
2023/03/17 09:30:12;;;;;;;5.50;2.75;;;9.90;53.60;;;;;;4140344;28;20044;-83
2023/03/17 09:32:31;;;;;;;6.32;2.65;;;10.00;53.20;;;;;;4130513;28;20053;-83
2023/03/17 09:34:51;;;;;;;7.00;2.67;;;10.10;53.10;;;;;;4129659;28;20037;-84
2023/03/17 09:37:10;;;;;;;5.18;2.60;;;10.20;53.00;;;;;;4140325;28;20040;-84
2023/03/17 09:39:29;;;;;;;6.22;2.83;;;10.30;52.90;;;;;;4141519;28;20124;-83
2023/03/17 09:42:06;;;;;;;6.00;2.88;;;10.40;52.70;;;;;;4130012;28;20213;-82
2023/03/17 09:44:57;;;;;;;5.05;2.65;;;10.60;52.60;;;;;;4120939;28;20052;-84
2023/03/17 09:47:28;;;;;;;7.57;2.70;;;10.70;52.30;;;;;;4145415;28;20045;-84
2023/03/17 09:49:51;;;;;;;8.13;2.67;;;10.80;51.90;;;;;;4139736;28;20065;-84
2023/03/17 09:52:17;;;;;;;6.15;2.65;;;10.90;51.80;;;;;;4138007;28;20040;-83
2023/03/17 09:54:37;;;;;;;5.40;2.67;;;11.00;51.60;;;;;;4139049;28;20164;-84
2023/03/17 09:57:09;;;;;;;6.35;2.40;;;11.10;51.70;;;;;;4129891;28;20034;-83
2023/03/17 09:59:34;;;;;;;4.60;2.88;;;11.20;51.40;;;;;;4139227;28;20380;-83
2023/03/17 10:01:53;;;;;;;5.68;2.80;;;11.30;51.10;;;;;;4121628;28;20448;-83
2023/03/17 10:04:19;;;;;;;7.15;2.65;;;11.40;51.10;;;;;;4124714;28;20057;-83
2023/03/17 10:06:43;;;;;;;5.13;2.80;;;11.50;50.50;;;;;;4127555;28;20522;-84
2023/03/17 10:09:06;;;;;;;8.75;3.38;;;11.60;50.50;;;;;;4136321;28;20046;-83
2023/03/17 10:11:41;;;;;;;6.43;2.67;;;11.70;50.40;;;;;;4143029;28;20150;-84
2023/03/17 10:14:16;;;;;;;5.93;3.05;;;11.70;50.10;;;;;;4127727;28;20140;-85
2023/03/17 10:16:59;;;;;;;6.75;2.88;;;11.80;50.30;;;;;;4141956;28;20574;-85
2023/03/17 10:19:36;;;;;;;9.73;3.10;;;11.80;50.40;;;;;;4134263;28;20144;-84
2023/03/17 10:22:03;;;;;;;5.40;2.90;;;11.90;50.20;;;;;;4137717;28;20546;-83
2023/03/17 10:24:23;;;;;;;6.50;3.05;;;12.00;50.30;;;;;;4131071;28;20053;-84
2023/03/17 10:26:56;;;;;;;6.75;3.05;;;12.10;49.80;;;;;;4138279;28;20119;-82
2023/03/17 10:29:21;;;;;;;5.57;2.78;;;12.10;49.60;;;;;;4141940;28;20096;-84
2023/03/17 10:31:41;;;;;;;8.45;2.95;;;12.20;49.10;;;;;;4125144;28;20041;-83
2023/03/17 10:34:13;;;;;;;7.15;3.10;;;12.30;48.30;;;;;;4130392;28;20106;-83
2023/03/17 10:36:38;;;;;;;6.90;2.55;;;12.20;47.70;;;;;;4134373;28;20599;-83
2023/03/17 10:38:58;;;;;;;5.10;2.80;;;12.20;48.50;;;;;;4123892;28;20463;-83
2023/03/17 10:41:18;;;;;;;5.95;2.75;;;12.20;48.20;;;;;;4136559;28;20040;-84
2023/03/17 10:43:44;;;;;;;5.53;2.97;;;12.20;48.10;;;;;;4122588;28;20045;-82
2023/03/17 10:46:07;;;;;;;6.05;3.03;;;12.20;47.80;;;;;;4126456;28;20036;-83
2023/03/17 10:48:28;;;;;;;12.35;3.15;;;12.20;48.30;;;;;;4130565;28;20124;-84
2023/03/17 10:50:47;;;;;;;10.20;2.70;;;12.30;48.60;;;;;;4138447;28;20067;-83
2023/03/17 10:53:17;;;;;;;6.15;2.95;;;12.40;48.70;;;;;;4136481;28;20116;-83
2023/03/17 10:55:41;;;;;;;9.20;2.95;;;12.50;48.20;;;;;;4123855;28;20068;-83
2023/03/17 10:58:14;;;;;;;7.00;3.50;;;12.60;48.30;;;;;;4139275;28;20045;-83
2023/03/17 11:00:36;;;;;;;7.07;3.65;;;12.60;48.00;;;;;;4139063;28;20025;-83
2023/03/17 11:02:57;;;;;;;7.45;3.38;;;12.70;47.90;;;;;;4140678;28;20040;-83
2023/03/17 11:05:20;;;;;;;8.25;3.65;;;12.80;47.60;;;;;;4134689;28;20068;-83
2023/03/17 11:07:40;;;;;;;7.78;3.50;;;12.70;47.90;;;;;;4139886;28;20037;-84
2023/03/17 11:10:02;;;;;;;6.32;3.40;;;12.80;48.20;;;;;;4139373;28;20275;-83
2023/03/17 11:12:38;;;;;;;7.43;3.67;;;12.90;48.40;;;;;;4140486;28;20052;-82
2023/03/17 11:15:04;;;;;;;9.30;3.60;;;12.90;48.20;;;;;;4137070;28;20109;-82
2023/03/17 11:17:51;;;;;;;7.78;3.67;;;12.90;48.30;;;;;;4139609;28;20048;-82
2023/03/17 11:20:33;;;;;;;5.60;3.40;;;13.00;48.80;;;;;;4139173;28;20033;-82
2023/03/17 11:23:21;;;;;;;8.90;3.53;;;13.00;48.30;;;;;;4127428;28;20555;-82
2023/03/17 11:25:43;;;;;;;7.80;4.10;;;13.10;48.60;;;;;;4124936;28;20065;-82
2023/03/17 11:28:20;;;;;;;6.00;3.80;;;13.20;48.60;;;;;;4139082;28;20604;-81
2023/03/17 11:30:51;;;;;;;6.70;3.90;;;13.20;48.30;;;;;;4140162;28;20033;-82
2023/03/17 11:33:20;;;;;;;7.45;3.33;;;13.20;48.20;;;;;;4141840;28;20124;-84
2023/03/17 11:35:51;;;;;;;9.65;3.53;;;13.30;47.90;;;;;;4142956;28;20029;-83
2023/03/17 11:38:30;;;;;;;9.85;3.70;;;13.40;47.40;;;;;;4128667;28;20110;-82
2023/03/17 11:41:23;;;;;;;7.85;3.45;;;13.30;47.10;;;;;;4139696;28;20160;-83
2023/03/17 11:43:54;;;;;;;7.32;3.35;;;13.40;46.90;;;;;;4139148;28;20100;-82
2023/03/17 11:46:36;;;;;;;8.23;3.28;;;13.40;47.30;;;;;;4137131;28;20036;-82
2023/03/17 11:49:23;;;;;;;8.95;3.53;;;13.30;47.10;;;;;;4138833;28;20319;-82
2023/03/17 11:52:12;;;;;;;6.85;3.60;;;13.40;47.00;;;;;;4128773;28;20078;-82
2023/03/17 11:54:49;;;;;;;7.57;3.70;;;13.40;47.10;;;;;;4138201;28;20506;-81
2023/03/17 11:57:31;;;;;;;7.07;3.78;;;13.40;47.20;;;;;;4129715;28;20064;-82
2023/03/17 12:00:22;;;;;;;5.85;3.25;;;13.40;47.10;;;;;;4137544;28;20045;-81
2023/03/17 12:02:51;;;;;;;10.75;3.80;;;13.50;47.70;;;;;;4142409;28;20558;-83
2023/03/17 12:05:14;;;;;;;9.32;3.88;;;13.50;46.50;;;;;;4143163;28;20302;-82
2023/03/17 12:07:40;;;;;;;7.75;3.85;;;13.50;46.40;;;;;;4140517;28;20064;-82
2023/03/17 12:10:09;;;;;;;6.65;3.83;;;13.50;45.50;;;;;;4129702;28;20118;-81
2023/03/17 12:12:38;;;;;;;7.90;3.30;;;13.50;45.80;;;;;;4138842;28;20052;-82
2023/03/17 12:14:59;;;;;;;9.40;4.32;;;13.60;46.30;;;;;;4128464;28;20096;-82
2023/03/17 12:18:03;;;;;;;7.90;3.67;;;13.60;45.90;;;;;;4139107;28;20058;-82
2023/03/17 12:20:32;;;;;;;12.00;3.20;;;13.70;46.20;;;;;;4137138;28;20118;-82
2023/03/17 12:23:00;;;;;;;8.15;3.42;;;13.70;46.40;;;;;;4139682;28;20048;-82
2023/03/17 12:25:29;;;;;;;12.90;4.25;;;13.80;45.70;;;;;;4137828;28;20036;-82